createdAt,value
2023-02-03T00:03:19.277Z,95.92
2023-02-03T00:07:21.331Z,96.23
2023-02-03T00:11:23.573Z,96.61
2023-02-03T00:15:25.619Z,97.16
2023-02-03T00:19:27.621Z,97.92
2023-02-03T00:23:31.978Z,98.42
2023-02-03T00:27:34.036Z,99.05
2023-02-03T00:31:36.383Z,100.00
2023-02-03T00:35:40.079Z,99.44
2023-02-03T00:39:42.152Z,98.55
2023-02-03T00:43:44.413Z,97.82
2023-02-03T00:47:46.487Z,97.37
2023-02-03T00:51:48.835Z,97.88
2023-02-03T00:55:52.016Z,98.97
2023-02-03T00:59:54.857Z,99.70
2023-02-03T01:03:57.038Z,99.89
2023-02-03T01:08:00.893Z,100.00
2023-02-03T01:12:03.981Z,99.80
2023-02-03T01:16:17.672Z,99.61
2023-02-03T01:20:21.471Z,98.98
2023-02-03T01:24:23.468Z,99.16
2023-02-03T01:28:25.503Z,99.59
2023-02-03T01:32:27.931Z,99.38
2023-02-03T01:36:31.943Z,99.35
2023-02-03T01:40:33.963Z,99.00
2023-02-03T01:44:38.863Z,99.48
2023-02-03T01:48:41.478Z,99.86
2023-02-03T01:52:46.951Z,100.00
2023-02-03T01:56:55.280Z,99.24
2023-02-03T02:00:58.717Z,99.04
2023-02-03T02:05:27.572Z,99.05
2023-02-03T02:09:29.585Z,99.12
2023-02-03T02:13:34.999Z,99.19
2023-02-03T02:18:23.323Z,99.37
2023-02-03T02:22:53.163Z,99.38
2023-02-03T02:27:07.889Z,99.57
2023-02-03T02:31:28.809Z,99.66
2023-02-03T02:35:47.521Z,98.91
2023-02-03T02:40:10.864Z,98.91
2023-02-03T02:44:21.536Z,98.89
2023-02-03T02:48:38.159Z,98.95
2023-02-03T02:52:43.721Z,98.70
2023-02-03T02:56:50.618Z,98.55
2023-02-03T03:00:52.719Z,98.32
2023-02-03T03:04:55.045Z,98.15
2023-02-03T03:09:06.175Z,98.60
2023-02-03T03:13:13.902Z,97.95
2023-02-03T03:17:25.004Z,98.46
2023-02-03T03:21:36.115Z,98.31
2023-02-03T03:25:46.028Z,97.72
2023-02-03T03:30:09.227Z,98.03
2023-02-03T03:34:13.244Z,97.67
2023-02-03T03:38:39.445Z,97.92
2023-02-03T03:42:55.109Z,98.15
2023-02-03T03:47:23.200Z,97.53
2023-02-03T03:51:40.579Z,96.79
2023-02-03T03:55:47.140Z,95.85
2023-02-03T03:59:50.592Z,95.27
2023-02-03T04:04:02.051Z,93.44
2023-02-03T04:08:04.351Z,92.84
2023-02-03T04:12:16.362Z,91.83
2023-02-03T04:16:18.445Z,92.46
2023-02-03T04:20:20.873Z,88.07
2023-02-03T04:24:22.951Z,88.11
2023-02-03T04:28:25.132Z,88.38
2023-02-03T04:32:27.579Z,89.29
2023-02-03T04:36:29.835Z,90.39
2023-02-03T04:40:34.682Z,92.42
2023-02-03T04:44:37.014Z,93.58
2023-02-03T04:48:39.180Z,94.42
2023-02-03T04:52:41.282Z,95.49
2023-02-03T04:56:43.289Z,96.29
2023-02-03T05:00:45.306Z,96.68
2023-02-03T05:04:47.353Z,96.91
2023-02-03T05:08:49.368Z,96.60
2023-02-03T05:12:51.418Z,97.03
2023-02-03T05:16:53.508Z,97.03
2023-02-03T05:20:55.605Z,96.65
2023-02-03T05:24:57.593Z,95.36
2023-02-03T05:28:59.577Z,95.94
2023-02-03T05:33:01.619Z,96.36
2023-02-03T05:37:03.905Z,95.92
2023-02-03T05:41:29.064Z,95.57
2023-02-03T05:45:31.659Z,95.13
2023-02-03T05:49:33.745Z,94.96
2023-02-03T05:53:35.764Z,94.89
2023-02-03T05:57:37.766Z,94.96
2023-02-03T06:01:40.049Z,94.92
2023-02-03T06:05:43.492Z,94.28
2023-02-03T06:09:45.487Z,94.38
2023-02-03T06:13:47.560Z,95.73
2023-02-03T06:17:50.008Z,94.28
2023-02-03T06:21:51.993Z,93.11
2023-02-03T06:25:54.032Z,92.74
2023-02-03T06:29:56.132Z,92.32
2023-02-03T06:33:59.483Z,92.08
2023-02-03T06:38:02.186Z,92.51
2023-02-03T06:42:04.255Z,92.19
2023-02-03T06:46:06.409Z,91.78
2023-02-03T06:50:10.614Z,91.31
2023-02-03T06:54:14.090Z,91.72
2023-02-03T06:58:16.163Z,90.98
2023-02-03T07:02:18.188Z,90.26
2023-02-03T07:06:20.186Z,90.34
2023-02-03T07:10:22.254Z,91.00
2023-02-03T07:14:24.292Z,90.08
2023-02-03T07:22:53.268Z,93.04
2023-02-03T07:26:55.277Z,87.33
2023-02-03T07:30:57.550Z,84.60
2023-02-03T07:35:01.236Z,83.46
2023-02-03T07:39:03.590Z,84.33
2023-02-03T07:43:05.598Z,84.38
2023-02-03T07:47:07.647Z,84.60
2023-02-03T07:51:09.681Z,85.27
2023-02-03T07:55:11.698Z,85.67
2023-02-03T07:59:13.692Z,85.37
2023-02-03T08:03:15.729Z,85.41
2023-02-03T08:07:17.794Z,85.73
2023-02-03T08:11:19.822Z,86.01
2023-02-03T08:15:22.231Z,85.69
2023-02-03T08:19:24.410Z,85.74
2023-02-03T08:23:26.374Z,85.55
2023-02-03T08:27:28.465Z,84.82
2023-02-03T08:31:31.613Z,84.84
2023-02-03T08:35:33.867Z,84.78
2023-02-03T08:39:36.254Z,84.65
2023-02-03T08:43:39.220Z,83.39
2023-02-03T08:47:41.303Z,82.92
2023-02-03T08:51:47.735Z,83.69
2023-02-03T08:55:49.874Z,82.48
2023-02-03T08:59:51.890Z,82.17
2023-02-03T09:03:54.529Z,81.28
2023-02-03T09:07:56.857Z,80.46
2023-02-03T09:12:02.367Z,81.12
2023-02-03T09:16:07.265Z,80.53
2023-02-03T09:20:10.376Z,80.03
2023-02-03T09:24:12.427Z,79.85
2023-02-03T09:28:14.470Z,79.19
2023-02-03T09:32:16.572Z,78.89
2023-02-03T09:36:18.672Z,78.30
2023-02-03T09:40:27.332Z,77.57
2023-02-03T09:44:46.681Z,77.88
2023-02-03T09:48:54.279Z,78.32
2023-02-03T09:52:58.676Z,77.96
2023-02-03T09:57:04.266Z,78.51
2023-02-03T10:01:13.293Z,79.33
2023-02-03T10:05:40.038Z,79.12
2023-02-03T10:09:54.881Z,79.66
2023-02-03T10:14:25.416Z,80.26
2023-02-03T10:18:33.449Z,80.92
2023-02-03T10:22:45.762Z,81.49
2023-02-03T10:26:48.685Z,82.21
2023-02-03T10:30:56.915Z,83.09
2023-02-03T10:35:01.832Z,84.20
2023-02-03T10:39:19.896Z,84.71
2023-02-03T10:43:40.515Z,86.39
2023-02-03T10:47:48.458Z,89.59
2023-02-03T10:51:52.990Z,91.42
2023-02-03T10:56:10.397Z,92.77
2023-02-03T11:00:24.175Z,94.28
2023-02-03T11:04:31.739Z,94.83
2023-02-03T11:08:35.812Z,94.07
2023-02-03T11:12:37.845Z,94.25
2023-02-03T11:16:42.694Z,91.99
2023-02-03T11:20:46.192Z,93.09
2023-02-03T11:24:48.234Z,92.13
2023-02-03T11:28:52.779Z,93.32
2023-02-03T11:32:54.874Z,94.25
2023-02-03T11:36:57.138Z,96.42
2023-02-03T11:41:03.169Z,97.60
2023-02-03T11:45:24.191Z,98.30
2023-02-03T11:49:34.548Z,100.00
2023-02-03T11:54:02.833Z,100.00
2023-02-03T11:58:19.387Z,100.00
2023-02-03T12:02:51.998Z,100.00
2023-02-03T12:07:01.084Z,100.00
2023-02-03T12:11:39.051Z,100.00
2023-02-03T12:16:10.273Z,100.00
2023-02-03T12:20:25.634Z,100.00
2023-02-03T12:24:46.500Z,100.00
2023-02-03T12:29:13.121Z,100.00
2023-02-03T12:33:46.214Z,100.00
2023-02-03T12:38:06.819Z,100.00
2023-02-03T12:42:27.683Z,100.00
2023-02-03T12:46:36.134Z,100.00
2023-02-03T12:50:54.023Z,100.00
2023-02-03T12:55:03.220Z,100.00
2023-02-03T12:59:13.928Z,100.00
2023-02-03T13:03:34.906Z,100.00
2023-02-03T13:07:46.170Z,100.00
2023-02-03T13:12:08.874Z,100.00
2023-02-03T13:16:13.657Z,100.00
2023-02-03T13:20:20.781Z,100.00
2023-02-03T13:24:27.894Z,100.00
2023-02-03T13:28:44.356Z,100.00
2023-02-03T13:32:58.696Z,100.00
2023-02-03T13:37:19.445Z,100.00
2023-02-03T13:41:42.620Z,100.00
2023-02-03T13:45:51.128Z,100.00
2023-02-03T13:49:59.710Z,100.00
2023-02-03T13:54:16.129Z,100.00
2023-02-03T13:58:39.362Z,100.00
2023-02-03T14:02:53.281Z,100.00
2023-02-03T14:06:58.633Z,100.00
2023-02-03T14:11:36.220Z,100.00
2023-02-03T14:15:39.550Z,100.00
2023-02-03T14:19:50.581Z,100.00
2023-02-03T14:23:59.332Z,100.00
2023-02-03T14:28:06.434Z,100.00
2023-02-03T14:32:12.972Z,100.00
2023-02-03T14:36:30.874Z,100.00
2023-02-03T14:40:45.115Z,100.00
2023-02-03T14:45:06.066Z,100.00
2023-02-03T14:49:20.651Z,100.00
2023-02-03T14:53:40.443Z,100.00
2023-02-03T14:57:51.003Z,100.00
2023-02-03T15:01:53.389Z,100.00
2023-02-03T15:06:05.247Z,100.00
2023-02-03T15:10:18.442Z,100.00
2023-02-03T15:14:23.421Z,100.00
2023-02-03T15:18:32.524Z,100.00
2023-02-03T15:22:38.096Z,100.00
2023-02-03T15:26:46.172Z,100.00
2023-02-03T15:31:14.224Z,100.00
2023-02-03T15:35:19.487Z,100.00
2023-02-03T15:39:48.963Z,100.00
2023-02-03T15:43:58.682Z,100.00
2023-02-03T15:48:31.414Z,100.00
2023-02-03T15:52:39.162Z,100.00
2023-02-03T15:56:56.941Z,100.00
2023-02-03T16:01:03.641Z,100.00
2023-02-03T16:05:13.759Z,100.00
2023-02-03T16:09:34.998Z,100.00
2023-02-03T16:13:43.077Z,100.00
2023-02-03T16:17:45.144Z,100.00
2023-02-03T16:21:50.135Z,100.00
2023-02-03T16:26:20.814Z,100.00
2023-02-03T16:30:43.231Z,100.00
2023-02-03T16:35:04.540Z,100.00
2023-02-03T16:39:29.857Z,100.00
2023-02-03T16:43:50.198Z,100.00
2023-02-03T16:48:11.042Z,100.00
2023-02-03T16:52:13.051Z,100.00
2023-02-03T16:56:17.764Z,100.00
2023-02-03T17:00:23.267Z,100.00
2023-02-03T17:04:25.286Z,100.00
2023-02-03T17:08:27.310Z,100.00
2023-02-03T17:12:31.324Z,100.00
2023-02-03T17:16:33.483Z,100.00
2023-02-03T17:20:36.786Z,100.00
2023-02-03T17:24:38.886Z,100.00
2023-02-03T17:28:43.119Z,100.00
2023-02-03T17:32:45.208Z,100.00
2023-02-03T17:36:47.258Z,100.00
2023-02-03T17:53:49.265Z,100.00
2023-02-03T17:57:51.570Z,100.00
2023-02-03T18:01:53.600Z,100.00
2023-02-03T18:05:55.590Z,98.68
2023-02-03T18:09:57.603Z,98.52
2023-02-03T18:14:00.611Z,94.40
2023-02-03T18:18:02.616Z,94.89
2023-02-03T18:22:04.694Z,93.78
2023-02-03T18:26:08.792Z,93.65
2023-02-03T18:30:11.900Z,92.79
2023-02-03T18:34:15.742Z,90.58
2023-02-03T18:38:17.748Z,90.68
2023-02-03T18:42:20.636Z,90.78
2023-02-03T18:46:25.983Z,91.30
2023-02-03T18:50:28.576Z,92.36
2023-02-03T18:54:30.866Z,92.49
2023-02-03T18:58:32.878Z,92.76
2023-02-03T19:02:35.027Z,92.84
2023-02-03T19:06:37.194Z,93.40
2023-02-03T19:10:39.203Z,93.52
2023-02-03T19:14:41.263Z,94.19
2023-02-03T19:18:46.753Z,94.43
2023-02-03T19:22:48.914Z,94.93
2023-02-03T19:26:50.881Z,95.34
2023-02-03T19:30:57.485Z,96.69
2023-02-03T19:35:01.889Z,96.73
2023-02-03T19:39:03.948Z,97.52
2023-02-03T19:43:06.001Z,97.96
2023-02-03T19:47:08.120Z,99.35
2023-02-03T19:51:12.019Z,100.00
2023-02-03T19:55:14.571Z,100.00
2023-02-03T19:59:16.633Z,100.00
2023-02-03T20:03:19.634Z,100.00
2023-02-03T20:07:23.146Z,100.00
2023-02-03T20:11:25.220Z,100.00
2023-02-03T20:15:27.286Z,100.00
2023-02-03T20:19:29.307Z,100.00
2023-02-03T20:23:31.926Z,100.00
2023-02-03T20:27:33.944Z,100.00
2023-02-03T20:31:36.432Z,100.00
2023-02-03T20:35:38.752Z,100.00
2023-02-03T20:39:41.033Z,100.00
2023-02-03T20:43:43.037Z,100.00
2023-02-03T20:47:45.657Z,100.00
2023-02-03T20:51:47.757Z,100.00
2023-02-03T20:55:50.861Z,99.86
2023-02-03T20:59:52.861Z,100.00
2023-02-03T21:04:13.540Z,100.00
2023-02-03T21:08:20.224Z,100.00
2023-02-03T21:12:22.288Z,99.58
2023-02-03T21:16:32.574Z,98.91
2023-02-03T21:20:34.607Z,98.12
2023-02-03T21:24:37.834Z,97.16
2023-02-03T21:28:39.887Z,96.75
2023-02-03T21:32:41.874Z,97.09
2023-02-03T21:36:43.867Z,96.30
2023-02-03T21:40:45.851Z,95.20
2023-02-03T21:44:48.014Z,94.99
2023-02-03T21:48:52.226Z,95.22
2023-02-03T21:52:54.251Z,96.87
2023-02-03T21:56:58.137Z,92.22
2023-02-03T22:01:03.594Z,89.42
2023-02-03T22:05:12.464Z,90.77
2023-02-03T22:09:17.066Z,90.69
2023-02-03T22:13:20.080Z,91.29
2023-02-03T22:17:22.074Z,91.91
2023-02-03T22:21:24.480Z,92.57
2023-02-03T22:25:26.791Z,92.85
2023-02-03T22:29:28.812Z,93.15
2023-02-03T22:33:31.928Z,93.68
2023-02-03T22:37:33.978Z,93.37
2023-02-03T22:41:35.955Z,93.85
2023-02-03T22:45:38.004Z,93.70
2023-02-03T22:49:40.066Z,93.32
2023-02-03T22:53:42.149Z,93.32
2023-02-03T22:57:44.127Z,92.61
2023-02-03T23:01:46.148Z,91.83
2023-02-03T23:05:48.182Z,91.71
2023-02-03T23:09:50.175Z,90.82
2023-02-03T23:13:52.203Z,91.27
2023-02-03T23:17:54.316Z,91.37
2023-02-03T23:21:56.311Z,90.69
2023-02-03T23:25:58.317Z,90.70
2023-02-03T23:30:00.334Z,90.03
2023-02-03T23:34:21.024Z,89.59
2023-02-03T23:38:23.057Z,89.75
2023-02-03T23:42:25.057Z,88.71
2023-02-03T23:46:27.144Z,88.95
2023-02-03T23:50:29.586Z,98.27
2023-02-03T23:54:31.789Z,87.20
2023-02-03T23:58:33.818Z,85.64
